sensor_id;sensor_type;location;lat;lon;timestamp;temperature;humidity
69901;DHT22;57183;50.930;5.406;2023-02-28T00:01:25;1.40;99.90
69901;DHT22;57183;50.930;5.406;2023-02-28T00:03:51;1.30;99.90
69901;DHT22;57183;50.930;5.406;2023-02-28T00:06:17;1.50;99.90
69901;DHT22;57183;50.930;5.406;2023-02-28T00:08:43;1.50;99.90
69901;DHT22;57183;50.930;5.406;2023-02-28T00:11:11;1.40;99.90
69901;DHT22;57183;50.930;5.406;2023-02-28T00:13:40;1.50;99.90
69901;DHT22;57183;50.930;5.406;2023-02-28T00:16:08;1.40;99.90
69901;DHT22;57183;50.930;5.406;2023-02-28T00:18:34;1.10;99.90
69901;DHT22;57183;50.930;5.406;2023-02-28T00:21:00;1.10;99.90
69901;DHT22;57183;50.930;5.406;2023-02-28T00:23:26;1.00;99.90
69901;DHT22;57183;50.930;5.406;2023-02-28T00:25:52;0.90;99.90
69901;DHT22;57183;50.930;5.406;2023-02-28T00:28:18;1.10;99.90
69901;DHT22;57183;50.930;5.406;2023-02-28T00:30:44;1.10;99.90
69901;DHT22;57183;50.930;5.406;2023-02-28T00:33:10;1.00;99.90
69901;DHT22;57183;50.930;5.406;2023-02-28T00:35:36;0.90;99.90
69901;DHT22;57183;50.930;5.406;2023-02-28T00:38:02;0.90;99.90
69901;DHT22;57183;50.930;5.406;2023-02-28T00:40:28;0.80;99.90
69901;DHT22;57183;50.930;5.406;2023-02-28T00:42:54;0.80;99.90
69901;DHT22;57183;50.930;5.406;2023-02-28T00:45:19;0.80;99.90
69901;DHT22;57183;50.930;5.406;2023-02-28T00:47:45;0.70;99.90
69901;DHT22;57183;50.930;5.406;2023-02-28T00:50:12;0.80;99.90
69901;DHT22;57183;50.930;5.406;2023-02-28T00:52:38;0.90;99.90
69901;DHT22;57183;50.930;5.406;2023-02-28T00:55:04;0.80;99.90
69901;DHT22;57183;50.930;5.406;2023-02-28T00:57:30;0.70;99.90
69901;DHT22;57183;50.930;5.406;2023-02-28T00:59:55;0.80;99.90
69901;DHT22;57183;50.930;5.406;2023-02-28T01:02:22;0.80;99.90
69901;DHT22;57183;50.930;5.406;2023-02-28T01:04:48;0.70;99.90
69901;DHT22;57183;50.930;5.406;2023-02-28T01:07:14;0.80;99.90
69901;DHT22;57183;50.930;5.406;2023-02-28T01:09:40;0.90;99.90
69901;DHT22;57183;50.930;5.406;2023-02-28T01:12:08;0.80;99.90
69901;DHT22;57183;50.930;5.406;2023-02-28T01:14:34;0.80;99.90
69901;DHT22;57183;50.930;5.406;2023-02-28T01:17:00;0.80;99.90
69901;DHT22;57183;50.930;5.406;2023-02-28T01:19:27;0.80;99.90
69901;DHT22;57183;50.930;5.406;2023-02-28T01:21:52;0.90;99.90
69901;DHT22;57183;50.930;5.406;2023-02-28T01:24:18;0.80;99.90
69901;DHT22;57183;50.930;5.406;2023-02-28T01:26:44;0.70;99.90
69901;DHT22;57183;50.930;5.406;2023-02-28T01:29:09;0.70;99.90
69901;DHT22;57183;50.930;5.406;2023-02-28T01:31:35;0.90;99.90
69901;DHT22;57183;50.930;5.406;2023-02-28T01:34:01;0.70;99.90
69901;DHT22;57183;50.930;5.406;2023-02-28T01:36:27;0.80;99.90
69901;DHT22;57183;50.930;5.406;2023-02-28T01:38:53;0.80;99.90
69901;DHT22;57183;50.930;5.406;2023-02-28T01:41:22;0.60;99.90
69901;DHT22;57183;50.930;5.406;2023-02-28T01:46:14;0.50;99.90
69901;DHT22;57183;50.930;5.406;2023-02-28T01:48:52;0.60;99.90
69901;DHT22;57183;50.930;5.406;2023-02-28T01:51:29;0.50;99.90
69901;DHT22;57183;50.930;5.406;2023-02-28T01:54:00;0.70;99.90
69901;DHT22;57183;50.930;5.406;2023-02-28T01:56:30;0.80;99.90
69901;DHT22;57183;50.930;5.406;2023-02-28T01:58:58;0.70;99.90
69901;DHT22;57183;50.930;5.406;2023-02-28T02:01:26;0.60;99.90
69901;DHT22;57183;50.930;5.406;2023-02-28T02:03:55;0.30;99.90
69901;DHT22;57183;50.930;5.406;2023-02-28T02:06:38;0.30;99.90
69901;DHT22;57183;50.930;5.406;2023-02-28T02:09:05;0.40;99.90
69901;DHT22;57183;50.930;5.406;2023-02-28T02:11:31;0.40;99.90
69901;DHT22;57183;50.930;5.406;2023-02-28T02:31:36;0.10;99.90
69901;DHT22;57183;50.930;5.406;2023-02-28T02:39:40;-0.30;99.90
69901;DHT22;57183;50.930;5.406;2023-02-28T02:42:23;-0.30;99.90
69901;DHT22;57183;50.930;5.406;2023-02-28T02:44:59;-0.40;99.90
69901;DHT22;57183;50.930;5.406;2023-02-28T02:47:28;-0.30;99.90
69901;DHT22;57183;50.930;5.406;2023-02-28T02:49:57;-0.40;99.90
69901;DHT22;57183;50.930;5.406;2023-02-28T02:52:29;-0.40;99.90
69901;DHT22;57183;50.930;5.406;2023-02-28T02:54:57;-0.30;99.90
69901;DHT22;57183;50.930;5.406;2023-02-28T02:57:30;-0.30;99.90
69901;DHT22;57183;50.930;5.406;2023-02-28T02:59:57;-0.10;99.90
69901;DHT22;57183;50.930;5.406;2023-02-28T03:02:24;-0.10;99.90
69901;DHT22;57183;50.930;5.406;2023-02-28T03:04:53;0.00;99.90
69901;DHT22;57183;50.930;5.406;2023-02-28T03:07:20;-0.20;99.90
69901;DHT22;57183;50.930;5.406;2023-02-28T03:09:55;-0.20;99.90
69901;DHT22;57183;50.930;5.406;2023-02-28T03:12:25;-0.20;99.90
69901;DHT22;57183;50.930;5.406;2023-02-28T03:15:22;-0.10;99.90
69901;DHT22;57183;50.930;5.406;2023-02-28T03:17:56;0.00;99.90
69901;DHT22;57183;50.930;5.406;2023-02-28T03:26:04;0.10;99.90
69901;DHT22;57183;50.930;5.406;2023-02-28T03:31:27;0.00;99.90
69901;DHT22;57183;50.930;5.406;2023-02-28T03:34:03;0.00;99.90
69901;DHT22;57183;50.930;5.406;2023-02-28T03:36:38;0.00;99.90
69901;DHT22;57183;50.930;5.406;2023-02-28T03:39:13;-0.20;99.90
69901;DHT22;57183;50.930;5.406;2023-02-28T03:41:47;-0.30;99.90
69901;DHT22;57183;50.930;5.406;2023-02-28T03:44:44;-0.10;99.90
69901;DHT22;57183;50.930;5.406;2023-02-28T03:47:21;0.00;99.90
69901;DHT22;57183;50.930;5.406;2023-02-28T03:49:53;0.20;99.90
69901;DHT22;57183;50.930;5.406;2023-02-28T03:52:22;0.20;99.90
69901;DHT22;57183;50.930;5.406;2023-02-28T03:54:53;0.30;99.90
69901;DHT22;57183;50.930;5.406;2023-02-28T03:57:30;0.30;99.90
69901;DHT22;57183;50.930;5.406;2023-02-28T04:00:19;0.30;99.90
69901;DHT22;57183;50.930;5.406;2023-02-28T04:02:46;0.30;99.90
69901;DHT22;57183;50.930;5.406;2023-02-28T04:05:18;0.40;99.90
69901;DHT22;57183;50.930;5.406;2023-02-28T04:07:44;0.10;99.90
69901;DHT22;57183;50.930;5.406;2023-02-28T04:10:12;0.20;99.90
69901;DHT22;57183;50.930;5.406;2023-02-28T04:12:38;0.00;99.90
69901;DHT22;57183;50.930;5.406;2023-02-28T04:15:04;-0.10;99.90
69901;DHT22;57183;50.930;5.406;2023-02-28T04:17:30;-0.20;99.90
69901;DHT22;57183;50.930;5.406;2023-02-28T04:19:56;-0.30;99.90
69901;DHT22;57183;50.930;5.406;2023-02-28T04:22:23;-0.20;99.90
69901;DHT22;57183;50.930;5.406;2023-02-28T04:24:51;-0.30;99.90
69901;DHT22;57183;50.930;5.406;2023-02-28T04:27:20;-0.30;99.90
69901;DHT22;57183;50.930;5.406;2023-02-28T04:29:46;-0.30;99.90
69901;DHT22;57183;50.930;5.406;2023-02-28T04:32:12;-0.30;99.90
69901;DHT22;57183;50.930;5.406;2023-02-28T04:34:38;-0.40;99.90
69901;DHT22;57183;50.930;5.406;2023-02-28T04:37:04;-0.30;99.90
69901;DHT22;57183;50.930;5.406;2023-02-28T04:39:30;-0.30;99.90
69901;DHT22;57183;50.930;5.406;2023-02-28T04:41:55;-0.30;99.90
69901;DHT22;57183;50.930;5.406;2023-02-28T04:44:22;-0.40;99.90
69901;DHT22;57183;50.930;5.406;2023-02-28T04:46:49;-0.40;99.90
69901;DHT22;57183;50.930;5.406;2023-02-28T04:49:15;-0.60;99.90
69901;DHT22;57183;50.930;5.406;2023-02-28T04:51:41;-0.70;99.90
69901;DHT22;57183;50.930;5.406;2023-02-28T04:54:07;-0.70;99.90
69901;DHT22;57183;50.930;5.406;2023-02-28T04:56:33;-0.60;99.90
69901;DHT22;57183;50.930;5.406;2023-02-28T04:58:59;-0.70;99.90
69901;DHT22;57183;50.930;5.406;2023-02-28T05:01:30;-0.60;99.90
69901;DHT22;57183;50.930;5.406;2023-02-28T05:03:59;-0.60;99.90
69901;DHT22;57183;50.930;5.406;2023-02-28T05:06:26;-0.60;99.90
69901;DHT22;57183;50.930;5.406;2023-02-28T05:08:53;-0.50;99.90
69901;DHT22;57183;50.930;5.406;2023-02-28T05:11:31;-0.70;99.90
69901;DHT22;57183;50.930;5.406;2023-02-28T05:14:01;-0.70;99.90
69901;DHT22;57183;50.930;5.406;2023-02-28T05:16:27;-0.70;99.90
69901;DHT22;57183;50.930;5.406;2023-02-28T05:18:53;-0.80;99.90
69901;DHT22;57183;50.930;5.406;2023-02-28T05:21:33;-0.90;99.90
69901;DHT22;57183;50.930;5.406;2023-02-28T05:24:02;-0.90;99.90
69901;DHT22;57183;50.930;5.406;2023-02-28T05:26:50;-0.90;99.90
69901;DHT22;57183;50.930;5.406;2023-02-28T05:29:14;-1.00;99.90
69901;DHT22;57183;50.930;5.406;2023-02-28T05:31:43;-1.10;99.90
69901;DHT22;57183;50.930;5.406;2023-02-28T05:34:08;-0.90;99.90
69901;DHT22;57183;50.930;5.406;2023-02-28T05:36:37;-0.90;99.90
69901;DHT22;57183;50.930;5.406;2023-02-28T05:39:06;-0.90;99.90
69901;DHT22;57183;50.930;5.406;2023-02-28T05:41:32;-0.80;99.90
69901;DHT22;57183;50.930;5.406;2023-02-28T05:44:01;-0.90;99.90
69901;DHT22;57183;50.930;5.406;2023-02-28T05:46:26;-1.00;99.90
69901;DHT22;57183;50.930;5.406;2023-02-28T05:48:52;-0.90;99.90
69901;DHT22;57183;50.930;5.406;2023-02-28T05:51:18;-1.10;99.90
69901;DHT22;57183;50.930;5.406;2023-02-28T05:56:30;-1.20;99.90
69901;DHT22;57183;50.930;5.406;2023-02-28T05:58:57;-0.80;99.90
69901;DHT22;57183;50.930;5.406;2023-02-28T06:01:37;-0.70;99.90
69901;DHT22;57183;50.930;5.406;2023-02-28T06:04:04;-0.80;99.90
69901;DHT22;57183;50.930;5.406;2023-02-28T06:06:31;-1.10;99.90
69901;DHT22;57183;50.930;5.406;2023-02-28T06:09:01;-1.10;99.90
69901;DHT22;57183;50.930;5.406;2023-02-28T06:11:27;-1.20;99.90
69901;DHT22;57183;50.930;5.406;2023-02-28T06:13:54;-1.20;99.90
69901;DHT22;57183;50.930;5.406;2023-02-28T06:16:21;-1.20;99.90
69901;DHT22;57183;50.930;5.406;2023-02-28T06:18:49;-1.30;99.90
69901;DHT22;57183;50.930;5.406;2023-02-28T06:21:15;-1.30;99.90
69901;DHT22;57183;50.930;5.406;2023-02-28T06:23:41;-1.30;99.90
69901;DHT22;57183;50.930;5.406;2023-02-28T06:26:07;-1.30;99.90
69901;DHT22;57183;50.930;5.406;2023-02-28T06:28:33;-1.20;99.90
69901;DHT22;57183;50.930;5.406;2023-02-28T06:30:59;-1.30;99.90
69901;DHT22;57183;50.930;5.406;2023-02-28T06:33:24;-1.20;99.90
69901;DHT22;57183;50.930;5.406;2023-02-28T06:35:51;-1.20;99.90
69901;DHT22;57183;50.930;5.406;2023-02-28T06:38:17;-1.10;99.90
69901;DHT22;57183;50.930;5.406;2023-02-28T06:40:44;-1.10;99.90
69901;DHT22;57183;50.930;5.406;2023-02-28T06:43:10;-1.10;99.90
69901;DHT22;57183;50.930;5.406;2023-02-28T06:45:42;-1.00;99.90
69901;DHT22;57183;50.930;5.406;2023-02-28T06:48:08;-1.10;99.90
69901;DHT22;57183;50.930;5.406;2023-02-28T06:50:35;-1.10;99.90
69901;DHT22;57183;50.930;5.406;2023-02-28T06:53:04;-1.10;99.90
69901;DHT22;57183;50.930;5.406;2023-02-28T06:55:38;-1.00;99.90
69901;DHT22;57183;50.930;5.406;2023-02-28T06:58:09;-0.90;99.90
69901;DHT22;57183;50.930;5.406;2023-02-28T07:00:42;-0.80;99.90
69901;DHT22;57183;50.930;5.406;2023-02-28T07:03:11;-0.90;99.90
69901;DHT22;57183;50.930;5.406;2023-02-28T07:05:39;-0.90;99.90
69901;DHT22;57183;50.930;5.406;2023-02-28T07:08:05;-0.70;99.90
69901;DHT22;57183;50.930;5.406;2023-02-28T07:10:33;-0.40;99.90
69901;DHT22;57183;50.930;5.406;2023-02-28T07:13:00;-0.40;99.90
69901;DHT22;57183;50.930;5.406;2023-02-28T07:15:26;-0.40;99.90
69901;DHT22;57183;50.930;5.406;2023-02-28T07:17:52;-0.20;99.90
69901;DHT22;57183;50.930;5.406;2023-02-28T07:20:22;-0.10;99.90
69901;DHT22;57183;50.930;5.406;2023-02-28T07:22:48;0.00;99.90
69901;DHT22;57183;50.930;5.406;2023-02-28T07:25:24;0.40;99.90
69901;DHT22;57183;50.930;5.406;2023-02-28T07:27:50;0.60;99.90
69901;DHT22;57183;50.930;5.406;2023-02-28T07:30:16;0.70;99.90
69901;DHT22;57183;50.930;5.406;2023-02-28T07:32:42;0.90;99.90
69901;DHT22;57183;50.930;5.406;2023-02-28T07:35:08;0.90;99.90
69901;DHT22;57183;50.930;5.406;2023-02-28T07:37:34;1.20;99.90
69901;DHT22;57183;50.930;5.406;2023-02-28T07:40:06;1.30;99.90
69901;DHT22;57183;50.930;5.406;2023-02-28T07:42:36;1.40;99.90
69901;DHT22;57183;50.930;5.406;2023-02-28T07:45:04;1.40;99.90
69901;DHT22;57183;50.930;5.406;2023-02-28T07:47:31;1.40;99.90
69901;DHT22;57183;50.930;5.406;2023-02-28T07:49:57;1.50;99.90
69901;DHT22;57183;50.930;5.406;2023-02-28T07:52:23;1.70;99.90
69901;DHT22;57183;50.930;5.406;2023-02-28T07:54:50;1.60;99.90
69901;DHT22;57183;50.930;5.406;2023-02-28T07:57:16;1.80;99.90
69901;DHT22;57183;50.930;5.406;2023-02-28T07:59:42;1.90;99.90
69901;DHT22;57183;50.930;5.406;2023-02-28T08:02:18;2.10;99.90
69901;DHT22;57183;50.930;5.406;2023-02-28T08:04:44;2.40;99.90
69901;DHT22;57183;50.930;5.406;2023-02-28T08:07:10;2.60;99.90
69901;DHT22;57183;50.930;5.406;2023-02-28T08:09:39;2.60;99.90
69901;DHT22;57183;50.930;5.406;2023-02-28T08:12:09;2.80;99.90
69901;DHT22;57183;50.930;5.406;2023-02-28T08:14:35;2.80;99.90
69901;DHT22;57183;50.930;5.406;2023-02-28T08:17:01;2.90;99.90
69901;DHT22;57183;50.930;5.406;2023-02-28T08:19:27;3.00;99.90
69901;DHT22;57183;50.930;5.406;2023-02-28T08:21:53;3.00;99.90
69901;DHT22;57183;50.930;5.406;2023-02-28T08:24:18;2.90;99.90
69901;DHT22;57183;50.930;5.406;2023-02-28T08:26:44;2.70;99.90
69901;DHT22;57183;50.930;5.406;2023-02-28T08:29:10;2.80;99.90
69901;DHT22;57183;50.930;5.406;2023-02-28T08:31:35;2.80;99.90
69901;DHT22;57183;50.930;5.406;2023-02-28T08:34:08;3.00;99.90
69901;DHT22;57183;50.930;5.406;2023-02-28T08:36:34;3.10;99.90
69901;DHT22;57183;50.930;5.406;2023-02-28T08:39:01;2.90;99.90
69901;DHT22;57183;50.930;5.406;2023-02-28T08:41:26;3.10;99.90
69901;DHT22;57183;50.930;5.406;2023-02-28T08:43:52;3.30;99.90
69901;DHT22;57183;50.930;5.406;2023-02-28T08:46:19;3.40;99.90
69901;DHT22;57183;50.930;5.406;2023-02-28T08:48:45;3.60;99.90
69901;DHT22;57183;50.930;5.406;2023-02-28T08:51:13;3.70;99.90
69901;DHT22;57183;50.930;5.406;2023-02-28T08:53:41;3.80;99.90
69901;DHT22;57183;50.930;5.406;2023-02-28T08:56:12;3.80;99.90
69901;DHT22;57183;50.930;5.406;2023-02-28T08:58:39;3.80;99.90
69901;DHT22;57183;50.930;5.406;2023-02-28T09:01:13;3.80;99.90
69901;DHT22;57183;50.930;5.406;2023-02-28T09:03:39;3.70;99.90
69901;DHT22;57183;50.930;5.406;2023-02-28T09:06:07;3.70;99.90
69901;DHT22;57183;50.930;5.406;2023-02-28T09:08:33;3.80;99.90
69901;DHT22;57183;50.930;5.406;2023-02-28T09:10:59;3.90;99.90
69901;DHT22;57183;50.930;5.406;2023-02-28T09:13:26;4.10;99.90
69901;DHT22;57183;50.930;5.406;2023-02-28T09:15:52;4.10;99.90
69901;DHT22;57183;50.930;5.406;2023-02-28T09:18:19;4.20;99.90
69901;DHT22;57183;50.930;5.406;2023-02-28T09:20:44;4.30;99.90
69901;DHT22;57183;50.930;5.406;2023-02-28T09:23:12;4.50;99.90
69901;DHT22;57183;50.930;5.406;2023-02-28T09:25:40;4.30;99.90
69901;DHT22;57183;50.930;5.406;2023-02-28T09:28:10;4.40;99.90
69901;DHT22;57183;50.930;5.406;2023-02-28T09:30:36;4.70;99.90
69901;DHT22;57183;50.930;5.406;2023-02-28T09:33:02;4.80;99.90
69901;DHT22;57183;50.930;5.406;2023-02-28T09:35:28;4.60;99.90
69901;DHT22;57183;50.930;5.406;2023-02-28T09:37:56;4.50;99.90
69901;DHT22;57183;50.930;5.406;2023-02-28T09:40:25;4.50;99.90
69901;DHT22;57183;50.930;5.406;2023-02-28T09:42:53;4.40;99.90
69901;DHT22;57183;50.930;5.406;2023-02-28T09:45:24;4.30;99.90
69901;DHT22;57183;50.930;5.406;2023-02-28T09:47:56;4.50;99.90
69901;DHT22;57183;50.930;5.406;2023-02-28T09:50:55;4.60;99.90
69901;DHT22;57183;50.930;5.406;2023-02-28T09:53:27;4.50;99.90
69901;DHT22;57183;50.930;5.406;2023-02-28T09:56:15;4.50;99.90
69901;DHT22;57183;50.930;5.406;2023-02-28T10:06:55;4.60;99.90
69901;DHT22;57183;50.930;5.406;2023-02-28T10:09:27;4.60;99.80
69901;DHT22;57183;50.930;5.406;2023-02-28T10:11:59;4.60;98.70
69901;DHT22;57183;50.930;5.406;2023-02-28T10:14:28;4.60;99.90
69901;DHT22;57183;50.930;5.406;2023-02-28T10:16:58;4.70;98.70
69901;DHT22;57183;50.930;5.406;2023-02-28T10:19:30;4.70;99.90
69901;DHT22;57183;50.930;5.406;2023-02-28T10:22:25;4.70;99.70
69901;DHT22;57183;50.930;5.406;2023-02-28T10:24:54;4.80;98.90
69901;DHT22;57183;50.930;5.406;2023-02-28T10:27:27;4.50;98.70
69901;DHT22;57183;50.930;5.406;2023-02-28T10:29:59;4.20;99.90
69901;DHT22;57183;50.930;5.406;2023-02-28T10:32:34;4.50;99.00
69901;DHT22;57183;50.930;5.406;2023-02-28T10:35:21;4.50;97.80
69901;DHT22;57183;50.930;5.406;2023-02-28T10:37:54;4.50;98.20
69901;DHT22;57183;50.930;5.406;2023-02-28T10:42:58;4.50;97.20
69901;DHT22;57183;50.930;5.406;2023-02-28T10:45:24;4.60;98.30
69901;DHT22;57183;50.930;5.406;2023-02-28T10:48:00;4.80;94.00
69901;DHT22;57183;50.930;5.406;2023-02-28T11:01:41;5.30;95.20
69901;DHT22;57183;50.930;5.406;2023-02-28T11:04:39;5.30;92.90
69901;DHT22;57183;50.930;5.406;2023-02-28T11:07:22;5.20;93.60
69901;DHT22;57183;50.930;5.406;2023-02-28T11:09:50;5.10;93.80
69901;DHT22;57183;50.930;5.406;2023-02-28T11:12:28;5.20;92.20
69901;DHT22;57183;50.930;5.406;2023-02-28T11:15:02;5.20;91.80
69901;DHT22;57183;50.930;5.406;2023-02-28T11:17:31;5.10;91.30
69901;DHT22;57183;50.930;5.406;2023-02-28T11:20:18;5.30;91.60
69901;DHT22;57183;50.930;5.406;2023-02-28T11:22:45;5.20;90.80
69901;DHT22;57183;50.930;5.406;2023-02-28T11:25:24;5.30;91.00
69901;DHT22;57183;50.930;5.406;2023-02-28T11:27:53;5.30;91.20
69901;DHT22;57183;50.930;5.406;2023-02-28T11:32:58;5.30;92.40
69901;DHT22;57183;50.930;5.406;2023-02-28T11:35:33;5.40;92.30
69901;DHT22;57183;50.930;5.406;2023-02-28T11:38:02;5.40;91.90
69901;DHT22;57183;50.930;5.406;2023-02-28T11:40:46;5.40;90.30
69901;DHT22;57183;50.930;5.406;2023-02-28T11:52:08;5.60;91.40
69901;DHT22;57183;50.930;5.406;2023-02-28T12:05:35;5.60;90.50
69901;DHT22;57183;50.930;5.406;2023-02-28T12:08:15;5.60;89.30
69901;DHT22;57183;50.930;5.406;2023-02-28T12:10:56;5.40;91.00
69901;DHT22;57183;50.930;5.406;2023-02-28T12:19:21;5.70;92.00
69901;DHT22;57183;50.930;5.406;2023-02-28T12:22:27;5.60;89.40
69901;DHT22;57183;50.930;5.406;2023-02-28T12:27:45;5.80;88.90
69901;DHT22;57183;50.930;5.406;2023-02-28T12:30:27;5.70;90.90
69901;DHT22;57183;50.930;5.406;2023-02-28T12:33:06;5.80;88.50
69901;DHT22;57183;50.930;5.406;2023-02-28T12:35:58;5.70;88.80
69901;DHT22;57183;50.930;5.406;2023-02-28T12:38:31;5.70;91.50
69901;DHT22;57183;50.930;5.406;2023-02-28T12:41:37;5.70;88.30
69901;DHT22;57183;50.930;5.406;2023-02-28T12:44:07;5.60;90.20
69901;DHT22;57183;50.930;5.406;2023-02-28T12:46:42;5.60;91.00
69901;DHT22;57183;50.930;5.406;2023-02-28T12:49:19;5.80;91.50
69901;DHT22;57183;50.930;5.406;2023-02-28T12:51:47;5.90;90.90
69901;DHT22;57183;50.930;5.406;2023-02-28T12:57:22;6.20;89.20
69901;DHT22;57183;50.930;5.406;2023-02-28T13:00:14;6.10;89.50
69901;DHT22;57183;50.930;5.406;2023-02-28T13:05:39;6.10;90.00
69901;DHT22;57183;50.930;5.406;2023-02-28T13:11:42;5.80;90.80
69901;DHT22;57183;50.930;5.406;2023-02-28T13:19:41;5.60;87.80
69901;DHT22;57183;50.930;5.406;2023-02-28T13:25:00;5.80;88.80
69901;DHT22;57183;50.930;5.406;2023-02-28T13:27:37;5.90;91.40
69901;DHT22;57183;50.930;5.406;2023-02-28T13:31:08;6.00;91.00
69901;DHT22;57183;50.930;5.406;2023-02-28T13:33:26;6.00;90.90
69901;DHT22;57183;50.930;5.406;2023-02-28T13:38:50;6.10;90.70
69901;DHT22;57183;50.930;5.406;2023-02-28T13:49:28;6.00;89.90
69901;DHT22;57183;50.930;5.406;2023-02-28T13:57:54;6.10;91.40
69901;DHT22;57183;50.930;5.406;2023-02-28T14:06:26;6.30;92.20
69901;DHT22;57183;50.930;5.406;2023-02-28T14:08:57;6.40;89.50
69901;DHT22;57183;50.930;5.406;2023-02-28T14:11:30;6.30;90.30
69901;DHT22;57183;50.930;5.406;2023-02-28T14:13:59;6.40;89.80
69901;DHT22;57183;50.930;5.406;2023-02-28T14:16:47;6.30;90.00
69901;DHT22;57183;50.930;5.406;2023-02-28T14:19:25;6.30;89.60
69901;DHT22;57183;50.930;5.406;2023-02-28T14:22:55;6.50;90.70
69901;DHT22;57183;50.930;5.406;2023-02-28T14:25:27;6.40;90.90
69901;DHT22;57183;50.930;5.406;2023-02-28T14:28:10;6.40;90.60
69901;DHT22;57183;50.930;5.406;2023-02-28T14:31:09;6.40;90.30
69901;DHT22;57183;50.930;5.406;2023-02-28T14:37:09;6.40;91.10
69901;DHT22;57183;50.930;5.406;2023-02-28T14:42:36;6.30;91.50
69901;DHT22;57183;50.930;5.406;2023-02-28T14:45:23;6.20;90.70
69901;DHT22;57183;50.930;5.406;2023-02-28T14:47:56;6.40;92.00
69901;DHT22;57183;50.930;5.406;2023-02-28T14:50:28;6.20;91.30
69901;DHT22;57183;50.930;5.406;2023-02-28T14:52:55;6.20;92.60
69901;DHT22;57183;50.930;5.406;2023-02-28T14:55:45;6.20;90.40
69901;DHT22;57183;50.930;5.406;2023-02-28T14:58:40;6.20;91.00
69901;DHT22;57183;50.930;5.406;2023-02-28T15:01:09;6.20;91.60
69901;DHT22;57183;50.930;5.406;2023-02-28T15:03:38;6.40;90.50
69901;DHT22;57183;50.930;5.406;2023-02-28T15:06:17;6.30;91.20
69901;DHT22;57183;50.930;5.406;2023-02-28T15:08:44;6.30;91.70
69901;DHT22;57183;50.930;5.406;2023-02-28T15:11:14;6.40;91.90
69901;DHT22;57183;50.930;5.406;2023-02-28T15:13:50;6.50;91.90
69901;DHT22;57183;50.930;5.406;2023-02-28T15:16:32;6.80;91.70
69901;DHT22;57183;50.930;5.406;2023-02-28T15:19:05;7.80;90.70
69901;DHT22;57183;50.930;5.406;2023-02-28T15:21:34;8.90;86.00
69901;DHT22;57183;50.930;5.406;2023-02-28T15:26:57;9.90;77.90
69901;DHT22;57183;50.930;5.406;2023-02-28T15:29:25;10.80;75.70
69901;DHT22;57183;50.930;5.406;2023-02-28T15:31:58;10.30;74.50
69901;DHT22;57183;50.930;5.406;2023-02-28T15:34:43;10.30;73.70
69901;DHT22;57183;50.930;5.406;2023-02-28T15:37:39;10.40;73.60
69901;DHT22;57183;50.930;5.406;2023-02-28T15:40:31;10.90;72.70
69901;DHT22;57183;50.930;5.406;2023-02-28T15:43:05;11.40;74.20
69901;DHT22;57183;50.930;5.406;2023-02-28T15:48:21;10.60;72.70
69901;DHT22;57183;50.930;5.406;2023-02-28T15:50:51;10.60;70.20
69901;DHT22;57183;50.930;5.406;2023-02-28T15:53:23;10.30;73.20
69901;DHT22;57183;50.930;5.406;2023-02-28T15:56:02;10.40;72.80
69901;DHT22;57183;50.930;5.406;2023-02-28T15:58:33;10.20;74.20
69901;DHT22;57183;50.930;5.406;2023-02-28T16:01:28;10.20;72.60
69901;DHT22;57183;50.930;5.406;2023-02-28T16:04:02;10.80;70.40
69901;DHT22;57183;50.930;5.406;2023-02-28T16:09:16;9.90;73.40
69901;DHT22;57183;50.930;5.406;2023-02-28T16:11:45;9.80;70.20
69901;DHT22;57183;50.930;5.406;2023-02-28T16:14:15;9.50;71.30
69901;DHT22;57183;50.930;5.406;2023-02-28T16:16:50;9.40;73.90
69901;DHT22;57183;50.930;5.406;2023-02-28T16:19:17;9.60;72.80
69901;DHT22;57183;50.930;5.406;2023-02-28T16:21:44;10.00;73.90
69901;DHT22;57183;50.930;5.406;2023-02-28T16:24:32;10.20;71.70
69901;DHT22;57183;50.930;5.406;2023-02-28T16:26:57;10.30;72.80
69901;DHT22;57183;50.930;5.406;2023-02-28T16:29:34;10.30;70.90
69901;DHT22;57183;50.930;5.406;2023-02-28T16:32:04;10.40;72.10
69901;DHT22;57183;50.930;5.406;2023-02-28T16:34:30;10.40;73.20
69901;DHT22;57183;50.930;5.406;2023-02-28T16:36:57;10.60;71.50
69901;DHT22;57183;50.930;5.406;2023-02-28T16:39:25;9.70;71.80
69901;DHT22;57183;50.930;5.406;2023-02-28T16:41:52;9.00;73.40
69901;DHT22;57183;50.930;5.406;2023-02-28T16:44:34;8.40;77.00
69901;DHT22;57183;50.930;5.406;2023-02-28T16:47:01;7.80;79.70
69901;DHT22;57183;50.930;5.406;2023-02-28T16:49:27;7.60;78.60
69901;DHT22;57183;50.930;5.406;2023-02-28T16:51:53;7.20;81.60
69901;DHT22;57183;50.930;5.406;2023-02-28T16:54:19;6.80;85.00
69901;DHT22;57183;50.930;5.406;2023-02-28T16:56:47;6.70;83.90
69901;DHT22;57183;50.930;5.406;2023-02-28T17:04:25;6.40;89.20
69901;DHT22;57183;50.930;5.406;2023-02-28T17:06:55;6.10;87.80
69901;DHT22;57183;50.930;5.406;2023-02-28T17:09:30;5.70;90.00
69901;DHT22;57183;50.930;5.406;2023-02-28T17:11:56;5.50;90.40
69901;DHT22;57183;50.930;5.406;2023-02-28T17:14:25;5.20;91.00
69901;DHT22;57183;50.930;5.406;2023-02-28T17:16:52;5.20;91.80
69901;DHT22;57183;50.930;5.406;2023-02-28T17:19:18;5.20;91.80
69901;DHT22;57183;50.930;5.406;2023-02-28T17:27:42;4.90;94.50
69901;DHT22;57183;50.930;5.406;2023-02-28T17:30:20;4.90;94.70
69901;DHT22;57183;50.930;5.406;2023-02-28T17:32:46;4.90;94.30
69901;DHT22;57183;50.930;5.406;2023-02-28T17:35:12;4.70;94.30
69901;DHT22;57183;50.930;5.406;2023-02-28T17:37:38;4.60;94.50
69901;DHT22;57183;50.930;5.406;2023-02-28T17:40:05;4.50;95.00
69901;DHT22;57183;50.930;5.406;2023-02-28T17:42:31;4.40;95.40
69901;DHT22;57183;50.930;5.406;2023-02-28T17:44:56;4.30;95.80
69901;DHT22;57183;50.930;5.406;2023-02-28T17:47:22;4.20;96.10
69901;DHT22;57183;50.930;5.406;2023-02-28T17:49:48;4.20;96.80
69901;DHT22;57183;50.930;5.406;2023-02-28T17:52:13;4.00;97.30
69901;DHT22;57183;50.930;5.406;2023-02-28T17:54:39;3.90;97.60
69901;DHT22;57183;50.930;5.406;2023-02-28T17:57:05;3.90;97.70
69901;DHT22;57183;50.930;5.406;2023-02-28T17:59:31;3.80;98.50
69901;DHT22;57183;50.930;5.406;2023-02-28T18:02:02;3.70;99.00
69901;DHT22;57183;50.930;5.406;2023-02-28T18:04:29;3.60;99.30
69901;DHT22;57183;50.930;5.406;2023-02-28T18:06:54;3.60;99.70
69901;DHT22;57183;50.930;5.406;2023-02-28T18:09:26;3.40;99.90
69901;DHT22;57183;50.930;5.406;2023-02-28T18:11:54;3.40;99.90
69901;DHT22;57183;50.930;5.406;2023-02-28T18:14:22;3.40;99.90
69901;DHT22;57183;50.930;5.406;2023-02-28T18:16:50;3.30;99.90
69901;DHT22;57183;50.930;5.406;2023-02-28T18:19:16;3.30;99.90
69901;DHT22;57183;50.930;5.406;2023-02-28T18:21:47;3.20;99.90
69901;DHT22;57183;50.930;5.406;2023-02-28T18:24:13;3.20;99.90
69901;DHT22;57183;50.930;5.406;2023-02-28T18:26:40;3.10;99.90
69901;DHT22;57183;50.930;5.406;2023-02-28T18:29:07;3.20;99.90
69901;DHT22;57183;50.930;5.406;2023-02-28T18:31:33;3.00;99.90
69901;DHT22;57183;50.930;5.406;2023-02-28T18:33:59;3.00;99.90
69901;DHT22;57183;50.930;5.406;2023-02-28T18:36:26;3.00;99.90
69901;DHT22;57183;50.930;5.406;2023-02-28T18:38:52;3.00;99.90
69901;DHT22;57183;50.930;5.406;2023-02-28T18:41:19;3.00;99.90